createdAt,value
2018-07-16T05:04:31.097Z,99.90
2018-07-16T05:09:36.745Z,99.90
2018-07-16T05:14:41.448Z,99.90
2018-07-16T05:19:46.345Z,99.90
2018-07-16T05:24:51.033Z,99.90
2018-07-16T05:29:55.709Z,99.90
2018-07-16T05:35:00.394Z,99.90
2018-07-16T05:40:05.079Z,99.90
2018-07-16T05:45:09.635Z,99.90
2018-07-16T05:50:14.926Z,99.90
2018-07-16T05:55:19.601Z,99.30
2018-07-16T06:00:24.163Z,98.50
2018-07-16T06:05:28.967Z,98.30
2018-07-16T06:10:33.648Z,96.20
2018-07-16T06:15:38.568Z,95.70
2018-07-16T06:20:43.376Z,95.50
2018-07-16T06:25:48.174Z,95.60
2018-07-16T06:30:55.736Z,94.60
2018-07-16T06:36:00.792Z,94.40
2018-07-16T06:41:20.403Z,92.10
2018-07-16T06:46:25.037Z,91.90
2018-07-16T06:51:29.707Z,91.70
2018-07-16T06:56:34.391Z,90.20
2018-07-16T07:01:39.308Z,89.90
2018-07-16T07:06:44.228Z,88.60
2018-07-16T07:11:49.091Z,87.30
2018-07-16T07:16:53.833Z,86.70
2018-07-16T07:21:58.637Z,83.10
2018-07-16T07:27:03.558Z,83.40
2018-07-16T07:32:08.481Z,80.30
2018-07-16T07:37:13.048Z,79.90
2018-07-16T07:42:17.727Z,79.10
2018-07-16T07:47:22.648Z,76.60
2018-07-16T07:52:27.691Z,74.60
2018-07-16T07:57:32.491Z,70.70
2018-07-16T08:02:52.293Z,70.90
2018-07-16T08:08:34.106Z,69.00
2018-07-16T08:19:49.984Z,68.60
2018-07-16T08:25:03.222Z,66.50
2018-07-16T08:30:08.289Z,64.60
2018-07-16T08:35:14.189Z,63.70
2018-07-16T08:40:19.072Z,63.70
2018-07-16T08:45:23.874Z,62.90
2018-07-16T08:50:28.792Z,58.90
2018-07-16T08:55:33.835Z,57.00
2018-07-16T09:00:38.646Z,58.90
2018-07-16T09:05:43.698Z,58.20
2018-07-16T09:10:48.537Z,58.10
2018-07-16T09:15:53.521Z,56.90
2018-07-16T09:20:58.203Z,56.30
2018-07-16T09:26:02.895Z,56.00
2018-07-16T09:31:07.864Z,54.20
2018-07-16T09:36:14.170Z,55.60
2018-07-16T09:41:18.974Z,57.00
2018-07-16T09:46:24.631Z,56.50
2018-07-16T09:51:29.934Z,55.40
2018-07-16T10:01:44.539Z,52.00
2018-07-16T10:06:49.341Z,49.30
2018-07-16T10:11:53.905Z,52.50
2018-07-16T10:16:59.078Z,51.10
2018-07-16T10:22:04.109Z,52.60
2018-07-16T10:27:09.512Z,52.00
2018-07-16T10:32:14.592Z,48.60
2018-07-16T10:37:19.603Z,52.60
2018-07-16T10:43:02.084Z,49.60
2018-07-16T10:48:14.800Z,49.70
2018-07-16T10:53:20.721Z,49.20
2018-07-16T10:58:25.487Z,48.00
2018-07-16T11:03:30.528Z,48.70
2018-07-16T11:08:35.510Z,47.70
2018-07-16T11:13:40.890Z,47.60
2018-07-16T11:25:03.894Z,48.10
2018-07-16T11:30:10.392Z,46.80
2018-07-16T11:40:26.221Z,46.10
2018-07-16T11:45:31.142Z,46.30
2018-07-16T11:50:36.669Z,43.30
2018-07-16T11:55:41.582Z,44.90
2018-07-16T12:00:46.512Z,43.70
2018-07-16T12:06:07.882Z,46.80
2018-07-16T12:11:29.964Z,44.20
2018-07-16T12:22:41.600Z,43.40
2018-07-16T12:27:47.161Z,44.50
2018-07-16T12:32:52.089Z,42.60
2018-07-16T12:37:56.960Z,40.40
2018-07-16T12:43:03.207Z,40.20
2018-07-16T12:54:10.693Z,41.60
2018-07-16T12:59:15.695Z,41.70
2018-07-16T13:04:20.623Z,41.90
2018-07-16T13:09:26.497Z,42.50
2018-07-16T13:14:32.035Z,40.50
2018-07-16T13:19:37.177Z,42.20
2018-07-16T13:29:47.573Z,41.40
2018-07-16T13:34:53.281Z,40.40
2018-07-16T13:39:58.186Z,38.40
2018-07-16T13:45:04.202Z,40.30
2018-07-16T13:50:10.124Z,39.30
2018-07-16T13:55:15.237Z,41.60
2018-07-16T14:00:20.033Z,40.50
2018-07-16T14:05:25.078Z,41.40
2018-07-16T14:10:29.963Z,40.80
2018-07-16T14:15:34.676Z,41.40
2018-07-16T14:20:39.491Z,41.60
2018-07-16T14:25:45.603Z,41.00
2018-07-16T14:30:51.485Z,40.20
2018-07-16T14:35:56.528Z,41.40
2018-07-16T14:41:01.809Z,39.90
2018-07-16T14:46:06.867Z,38.30
2018-07-16T14:51:11.791Z,41.80
2018-07-16T14:56:16.942Z,42.10
2018-07-16T15:01:21.755Z,41.00
2018-07-16T15:11:31.342Z,42.00
2018-07-16T15:16:43.876Z,38.60
2018-07-16T15:21:48.993Z,39.20
2018-07-16T15:26:54.027Z,41.60
2018-07-16T15:31:59.679Z,43.00
2018-07-16T15:37:04.648Z,43.90
2018-07-16T15:42:09.402Z,41.80
2018-07-16T15:47:14.251Z,43.00
2018-07-16T15:52:19.240Z,42.60
2018-07-16T15:57:24.171Z,40.40
2018-07-16T16:02:29.020Z,40.30
2018-07-16T16:07:34.019Z,42.40
2018-07-16T16:12:38.803Z,44.40
2018-07-16T16:17:43.604Z,44.50
2018-07-16T16:22:48.772Z,45.20
2018-07-16T16:27:54.049Z,44.80
2018-07-16T16:33:06.602Z,45.80
2018-07-16T16:38:11.714Z,45.60
2018-07-16T16:43:16.502Z,45.00
2018-07-16T16:48:21.557Z,45.20
2018-07-16T16:53:26.704Z,45.00
2018-07-16T16:58:32.196Z,45.20
2018-07-16T17:03:37.172Z,45.40
2018-07-16T17:08:42.072Z,47.10
2018-07-16T17:18:51.429Z,48.70
2018-07-16T17:23:56.050Z,48.40
2018-07-16T17:29:00.914Z,49.50
2018-07-16T17:39:13.647Z,50.10
2018-07-16T17:44:21.325Z,49.40
2018-07-16T17:49:26.126Z,49.20
2018-07-16T17:54:31.044Z,50.40
2018-07-16T17:59:37.292Z,49.80
2018-07-16T18:04:44.012Z,50.30
2018-07-16T18:09:51.512Z,50.40
2018-07-16T18:14:56.258Z,50.90
2018-07-16T18:20:02.016Z,50.20
2018-07-16T18:25:10.565Z,50.80
2018-07-16T18:35:19.793Z,51.60
2018-07-16T18:40:24.594Z,51.40
2018-07-16T18:45:34.945Z,52.30
2018-07-16T18:50:42.089Z,52.60
2018-07-16T18:55:49.549Z,52.50
2018-07-16T19:05:59.874Z,52.70
2018-07-16T19:11:06.118Z,53.60
2018-07-16T19:16:10.987Z,53.80
2018-07-16T19:21:17.403Z,54.00
2018-07-16T19:26:23.043Z,54.20
2018-07-16T19:31:29.644Z,54.40
2018-07-16T19:36:34.723Z,54.80
2018-07-16T19:41:39.369Z,55.00
2018-07-16T19:46:44.290Z,55.00
2018-07-16T19:57:05.900Z,55.80
2018-07-16T20:02:11.297Z,55.80
2018-07-16T20:07:16.049Z,56.30
2018-07-16T20:12:34.822Z,56.70
2018-07-16T20:17:39.623Z,56.60
2018-07-16T20:22:44.443Z,57.00
2018-07-16T20:27:49.946Z,57.20
2018-07-16T20:37:58.972Z,58.00
2018-07-16T20:43:04.241Z,58.20
2018-07-16T20:48:09.158Z,58.50
2018-07-16T20:58:18.158Z,59.30
2018-07-16T21:03:23.215Z,59.50
2018-07-16T21:08:27.903Z,59.80
2018-07-16T21:13:32.807Z,59.80
2018-07-16T21:18:38.328Z,60.20
2018-07-16T21:23:43.145Z,60.50
2018-07-16T21:28:47.935Z,60.60
2018-07-16T21:33:52.789Z,60.80
2018-07-16T21:38:57.801Z,61.10
2018-07-16T21:44:02.626Z,61.40
2018-07-16T21:49:07.144Z,61.60
2018-07-16T21:54:11.705Z,61.90
2018-07-16T21:59:16.502Z,62.60
2018-07-16T22:04:21.192Z,62.70
2018-07-16T22:09:26.473Z,63.20
2018-07-16T22:14:31.030Z,64.50
2018-07-16T22:19:36.550Z,65.70
2018-07-16T22:24:41.478Z,65.20
2018-07-16T22:29:46.159Z,66.60
2018-07-16T22:34:51.077Z,66.20
2018-07-16T22:39:56.007Z,67.40
2018-07-16T22:45:00.802Z,67.50
2018-07-16T22:50:05.845Z,69.10
2018-07-16T22:55:10.772Z,68.20
2018-07-16T23:00:15.687Z,67.50
2018-07-16T23:05:32.068Z,68.00
2018-07-16T23:10:38.130Z,68.00
2018-07-16T23:15:45.453Z,67.90
2018-07-16T23:20:50.141Z,69.10
2018-07-16T23:25:55.780Z,71.90
2018-07-16T23:31:01.418Z,72.00
2018-07-16T23:36:06.226Z,74.80
2018-07-16T23:41:10.909Z,72.90
2018-07-16T23:46:16.546Z,71.20
2018-07-16T23:51:21.468Z,70.30
2018-07-16T23:56:26.393Z,70.20
